Time;durP1;ratioP1;P1;durP2;ratioP2;P2;SDS_P1;SDS_P2;PMS_P1;PMS_P2;Temp;Humidity;BMP_temperature;BMP_pressure;BME280_temperature;BME280_humidity;BME280_pressure;Samples;Min_cycle;Max_cycle;Signal;HPM_P1;HPM_P2
2023/05/30 00:01:25;;;;;;;;;;;;;;;18.28;49.20;98511.34;7395488;19;19915;-81
2023/05/30 00:03:52;;;;;;;;;;;;;;;18.21;47.25;98511.31;7387632;19;19986;-80
2023/05/30 00:06:22;;;;;;;;;;;;;;;18.28;46.78;98524.72;7389771;19;19918;-80
2023/05/30 00:08:48;;;;;;;;;;;;;;;18.24;47.27;98526.13;7387769;19;19911;-81
2023/05/30 00:11:18;;;;;;;;;;;;;;;18.32;48.25;98531.31;7391494;19;19919;-80
2023/05/30 00:13:48;;;;;;;;;;;;;;;18.31;47.63;98529.66;7386270;19;20017;-81
2023/05/30 00:16:15;;;;;;;;;;;;;;;18.30;47.94;98540.56;7390559;19;19915;-80
2023/05/30 00:18:52;;;;;;;;;;;;;;;18.26;48.26;98544.69;7386706;19;19911;-81
2023/05/30 00:21:19;;;;;;;;;;;;;;;18.25;47.46;98537.69;7393073;19;19911;-79
2023/05/30 00:23:46;;;;;;;;;;;;;;;18.24;48.14;98558.28;7390285;19;19928;-80
2023/05/30 00:26:13;;;;;;;;;;;;;;;18.19;49.27;98550.88;7389052;19;19943;-80
2023/05/30 00:28:47;;;;;;;;;;;;;;;18.23;48.94;98553.13;7389357;19;19915;-81
2023/05/30 00:31:15;;;;;;;;;;;;;;;18.19;47.96;98553.53;7383024;19;19918;-83
2023/05/30 00:33:42;;;;;;;;;;;;;;;18.05;47.79;98551.81;7389130;19;19947;-81
2023/05/30 00:36:08;;;;;;;;;;;;;;;18.03;49.23;98553.88;7392008;19;19914;-83
2023/05/30 00:38:39;;;;;;;;;;;;;;;18.05;49.37;98553.69;7393375;19;19927;-80
2023/05/30 00:41:06;;;;;;;;;;;;;;;17.94;47.87;98545.19;7390083;19;19915;-79
2023/05/30 00:43:32;;;;;;;;;;;;;;;17.90;48.03;98545.78;7388395;19;19994;-81
2023/05/30 00:46:00;;;;;;;;;;;;;;;17.90;48.51;98551.94;7388689;19;19919;-82
2023/05/30 00:48:27;;;;;;;;;;;;;;;17.84;47.57;98554.59;7384750;19;20583;-79
2023/05/30 00:50:54;;;;;;;;;;;;;;;17.93;48.35;98556.94;7382365;19;20016;-80
2023/05/30 00:53:23;;;;;;;;;;;;;;;17.91;48.55;98550.94;7384859;19;20597;-80
2023/05/30 00:55:50;;;;;;;;;;;;;;;17.83;48.17;98553.78;7385962;19;19997;-83
2023/05/30 00:58:16;;;;;;;;;;;;;;;17.91;48.58;98550.94;7387862;19;19917;-80
2023/05/30 01:00:43;;;;;;;;;;;;;;;17.89;47.89;98546.81;7389786;19;19922;-82
2023/05/30 01:03:11;;;;;;;;;;;;;;;17.75;48.08;98545.88;7392382;19;19915;-80
2023/05/30 01:05:39;;;;;;;;;;;;;;;17.81;50.16;98545.13;7390732;19;19954;-81
2023/05/30 01:08:07;;;;;;;;;;;;;;;17.85;49.14;98546.38;7390914;19;19919;-81
2023/05/30 01:10:34;;;;;;;;;;;;;;;17.76;48.52;98547.53;7391377;19;19987;-80
2023/05/30 01:13:12;;;;;;;;;;;;;;;17.82;49.85;98540.59;7395869;19;19943;-81
2023/05/30 01:15:48;;;;;;;;;;;;;;;17.75;49.50;98541.34;7399744;19;20005;-79
2023/05/30 01:18:19;;;;;;;;;;;;;;;17.75;51.06;98546.72;7394624;19;19943;-81
2023/05/30 01:20:50;;;;;;;;;;;;;;;17.72;49.14;98538.22;7392484;19;19907;-79
2023/05/30 01:23:32;;;;;;;;;;;;;;;17.77;49.44;98538.47;7391653;19;19914;-82
2023/05/30 01:26:18;;;;;;;;;;;;;;;17.62;49.20;98527.09;7399470;19;19946;-79
2023/05/30 01:28:45;;;;;;;;;;;;;;;17.70;50.03;98532.28;7397426;19;19921;-80
2023/05/30 01:31:12;;;;;;;;;;;;;;;17.71;48.77;98520.53;7397332;19;19921;-82
2023/05/30 01:33:39;;;;;;;;;;;;;;;17.76;49.94;98520.78;7398953;19;19915;-79
2023/05/30 01:36:07;;;;;;;;;;;;;;;17.77;51.20;98527.75;7402622;19;19918;-81
2023/05/30 01:38:34;;;;;;;;;;;;;;;17.70;49.82;98521.56;7399130;19;19986;-82
2023/05/30 01:41:01;;;;;;;;;;;;;;;17.60;49.73;98521.09;7405960;19;19932;-80
2023/05/30 01:43:34;;;;;;;;;;;;;;;17.60;50.47;98515.75;7405481;19;19915;-81
2023/05/30 01:46:30;;;;;;;;;;;;;;;17.61;50.30;98523.56;7397830;19;19919;-82
2023/05/30 01:49:19;;;;;;;;;;;;;;;17.48;49.71;98516.31;7392187;19;19926;-80
2023/05/30 01:51:53;;;;;;;;;;;;;;;17.47;49.43;98521.84;7385509;19;19925;-81
2023/05/30 01:54:22;;;;;;;;;;;;;;;17.47;49.73;98517.31;7387885;19;19914;-80
2023/05/30 01:56:54;;;;;;;;;;;;;;;17.41;49.54;98520.78;7385223;19;20321;-80
2023/05/30 01:59:21;;;;;;;;;;;;;;;17.34;50.42;98533.28;7395533;19;19918;-80
2023/05/30 02:01:51;;;;;;;;;;;;;;;17.39;51.90;98530.84;7408400;19;19938;-82
2023/05/30 02:04:18;;;;;;;;;;;;;;;17.33;50.97;98529.78;7394376;19;19925;-83
2023/05/30 02:06:45;;;;;;;;;;;;;;;17.36;51.23;98535.75;7393794;19;19935;-81
2023/05/30 02:09:11;;;;;;;;;;;;;;;17.26;51.30;98536.91;7387323;19;19959;-81
2023/05/30 02:11:38;;;;;;;;;;;;;;;17.24;50.96;98527.44;7385249;19;19935;-83
2023/05/30 02:14:05;;;;;;;;;;;;;;;17.33;51.91;98531.63;7388684;19;19959;-80
2023/05/30 02:16:32;;;;;;;;;;;;;;;17.38;53.65;98533.69;7392495;19;19922;-80
2023/05/30 02:19:00;;;;;;;;;;;;;;;17.32;53.66;98532.63;7394009;19;19926;-80
2023/05/30 02:21:27;;;;;;;;;;;;;;;17.22;52.33;98530.31;7394050;19;19943;-80
2023/05/30 02:23:53;;;;;;;;;;;;;;;17.10;52.84;98532.69;7394056;19;19915;-80
2023/05/30 02:26:23;;;;;;;;;;;;;;;16.91;53.20;98543.22;7396928;19;19925;-81
2023/05/30 02:28:50;;;;;;;;;;;;;;;16.97;55.39;98542.44;7390463;19;19919;-80
2023/05/30 02:31:17;;;;;;;;;;;;;;;16.97;54.63;98547.78;7388221;19;19923;-80
2023/05/30 02:33:44;;;;;;;;;;;;;;;16.98;54.68;98541.41;7392775;19;20612;-80
2023/05/30 02:36:12;;;;;;;;;;;;;;;16.94;54.62;98543.66;7391496;19;19948;-80
2023/05/30 02:38:38;;;;;;;;;;;;;;;16.90;54.40;98545.06;7389163;19;19923;-80
2023/05/30 02:41:06;;;;;;;;;;;;;;;16.87;54.13;98543.59;7388949;19;20254;-81
2023/05/30 02:43:33;;;;;;;;;;;;;;;16.74;54.33;98542.63;7386206;19;19914;-80
2023/05/30 02:46:01;;;;;;;;;;;;;;;16.75;54.04;98544.28;7383179;19;19927;-80
2023/05/30 02:48:28;;;;;;;;;;;;;;;16.78;56.35;98538.59;7384280;19;19931;-79
2023/05/30 02:50:57;;;;;;;;;;;;;;;16.76;56.89;98538.75;7386802;19;20884;-80
2023/05/30 02:53:24;;;;;;;;;;;;;;;16.79;57.00;98537.56;7388069;19;19974;-79
2023/05/30 02:55:57;;;;;;;;;;;;;;;16.72;55.84;98536.63;7391677;19;19926;-79
2023/05/30 02:58:43;;;;;;;;;;;;;;;16.68;56.76;98550.38;7392826;19;19925;-79
2023/05/30 03:01:20;;;;;;;;;;;;;;;16.61;55.76;98549.50;7385142;19;19918;-80
2023/05/30 03:03:54;;;;;;;;;;;;;;;16.54;56.27;98555.78;7380602;19;19918;-80
2023/05/30 03:06:32;;;;;;;;;;;;;;;16.54;55.73;98561.13;7383859;19;19930;-80
2023/05/30 03:09:08;;;;;;;;;;;;;;;16.53;55.16;98560.28;7379690;19;19930;-81
2023/05/30 03:11:36;;;;;;;;;;;;;;;16.47;54.83;98563.72;7387533;19;19914;-81
2023/05/30 03:14:05;;;;;;;;;;;;;;;16.55;56.33;98563.59;7382947;19;19922;-81
2023/05/30 03:16:32;;;;;;;;;;;;;;;16.48;54.71;98560.00;7389807;19;19943;-80
2023/05/30 03:19:01;;;;;;;;;;;;;;;16.47;54.25;98566.38;7383204;19;19914;-81
2023/05/30 03:21:29;;;;;;;;;;;;;;;16.53;56.02;98562.94;7392502;19;19926;-79
2023/05/30 03:23:57;;;;;;;;;;;;;;;16.48;54.66;98560.00;7393995;19;19911;-80
2023/05/30 03:26:27;;;;;;;;;;;;;;;16.44;55.01;98556.91;7395181;19;19919;-81
2023/05/30 03:28:57;;;;;;;;;;;;;;;16.51;55.17;98562.34;7389033;19;19915;-81
2023/05/30 03:31:27;;;;;;;;;;;;;;;16.35;54.54;98563.41;7394520;19;20383;-80
2023/05/30 03:33:54;;;;;;;;;;;;;;;16.47;55.01;98563.72;7390371;19;19921;-80
2023/05/30 03:36:25;;;;;;;;;;;;;;;16.37;54.23;98568.53;7389362;19;20322;-80
2023/05/30 03:38:56;;;;;;;;;;;;;;;16.43;55.24;98573.97;7391456;19;19922;-79
2023/05/30 03:41:25;;;;;;;;;;;;;;;16.35;55.11;98565.22;7398511;19;19922;-80
2023/05/30 03:43:55;;;;;;;;;;;;;;;16.39;54.55;98574.50;7393873;19;19911;-81
2023/05/30 03:46:23;;;;;;;;;;;;;;;16.33;54.66;98561.94;7395649;19;20281;-81
2023/05/30 03:48:56;;;;;;;;;;;;;;;16.38;55.13;98570.22;7391795;19;19941;-82
2023/05/30 03:51:23;;;;;;;;;;;;;;;16.43;55.37;98575.81;7388959;19;20268;-80
2023/05/30 03:53:50;;;;;;;;;;;;;;;16.42;55.98;98574.97;7389035;19;19989;-81
2023/05/30 03:56:19;;;;;;;;;;;;;;;16.47;55.05;98585.09;7393409;19;19922;-81
2023/05/30 03:58:46;;;;;;;;;;;;;;;16.42;54.96;98582.97;7393614;19;19929;-80
2023/05/30 04:01:14;;;;;;;;;;;;;;;16.40;54.98;98581.50;7393396;19;19919;-80
2023/05/30 04:03:42;;;;;;;;;;;;;;;16.31;55.26;98585.31;7397730;19;19917;-81
2023/05/30 04:06:10;;;;;;;;;;;;;;;16.27;55.88;98587.50;7400318;19;20015;-81
2023/05/30 04:08:37;;;;;;;;;;;;;;;16.27;55.46;98590.19;7409264;19;19975;-81
2023/05/30 04:11:04;;;;;;;;;;;;;;;16.24;55.63;98586.06;7402239;19;19943;-81
2023/05/30 04:13:32;;;;;;;;;;;;;;;16.17;55.79;98595.00;7405557;19;19922;-81
2023/05/30 04:16:00;;;;;;;;;;;;;;;16.24;56.74;98595.91;7407439;19;19929;-83
2023/05/30 04:18:27;;;;;;;;;;;;;;;16.11;56.11;98593.88;7403700;19;20414;-81
2023/05/30 04:20:54;;;;;;;;;;;;;;;16.24;57.40;98596.75;7406969;19;19922;-81
2023/05/30 04:23:22;;;;;;;;;;;;;;;16.20;56.75;98598.13;7401182;19;20588;-81
2023/05/30 04:25:51;;;;;;;;;;;;;;;16.22;56.92;98598.78;7408698;19;19919;-80
2023/05/30 04:28:19;;;;;;;;;;;;;;;16.15;57.14;98603.19;7402399;19;19947;-80
2023/05/30 04:30:54;;;;;;;;;;;;;;;16.12;57.57;98600.91;7402696;19;19926;-81
2023/05/30 04:33:35;;;;;;;;;;;;;;;16.17;58.32;98595.00;7403951;19;19926;-80
2023/05/30 04:36:02;;;;;;;;;;;;;;;16.07;57.35;98591.78;7411815;19;20737;-82
2023/05/30 04:38:35;;;;;;;;;;;;;;;16.15;58.37;98608.53;7413786;19;19926;-81
2023/05/30 04:41:02;;;;;;;;;;;;;;;16.00;58.43;98605.03;7400705;19;19925;-82
2023/05/30 04:43:30;;;;;;;;;;;;;;;15.84;57.78;98607.88;7407843;19;19915;-81
2023/05/30 04:46:04;;;;;;;;;;;;;;;15.96;58.99;98609.91;7411655;19;19914;-82
2023/05/30 04:48:38;;;;;;;;;;;;;;;15.98;57.90;98615.06;7408899;19;19923;-81
2023/05/30 04:51:04;;;;;;;;;;;;;;;16.02;57.77;98617.19;7405259;19;19931;-81
2023/05/30 04:53:32;;;;;;;;;;;;;;;15.99;58.22;98628.22;7407215;19;19943;-84
2023/05/30 04:55:59;;;;;;;;;;;;;;;15.98;58.27;98623.91;7405778;19;19939;-81
2023/05/30 04:58:26;;;;;;;;;;;;;;;16.01;58.12;98622.72;7409728;19;20222;-82
2023/05/30 05:00:53;;;;;;;;;;;;;;;16.08;58.01;98622.78;7404445;19;19930;-82
2023/05/30 05:03:21;;;;;;;;;;;;;;;16.12;58.67;98626.75;7400747;19;19973;-82
2023/05/30 05:05:48;;;;;;;;;;;;;;;16.08;57.97;98636.97;7401269;19;20003;-83
2023/05/30 05:08:14;;;;;;;;;;;;;;;16.13;57.93;98637.22;7394109;19;19915;-82
2023/05/30 05:10:44;;;;;;;;;;;;;;;16.17;58.35;98635.03;7390030;19;19919;-83
2023/05/30 05:13:11;;;;;;;;;;;;;;;16.18;58.35;98636.69;7387915;19;19942;-81
2023/05/30 05:15:40;;;;;;;;;;;;;;;16.26;58.87;98633.09;7389491;19;19915;-83
2023/05/30 05:18:10;;;;;;;;;;;;;;;16.25;58.95;98634.94;7386549;19;19926;-82
2023/05/30 05:20:36;;;;;;;;;;;;;;;16.31;58.67;98642.19;7393511;19;19929;-81
2023/05/30 05:23:03;;;;;;;;;;;;;;;16.28;58.57;98639.91;7386094;19;19938;-81
2023/05/30 05:25:30;;;;;;;;;;;;;;;16.34;58.43;98643.66;7395692;19;19926;-81
2023/05/30 05:27:56;;;;;;;;;;;;;;;16.44;58.70;98652.22;7396492;19;19934;-83
2023/05/30 05:30:23;;;;;;;;;;;;;;;16.53;59.02;98650.25;7393854;19;19922;-82
2023/05/30 05:32:52;;;;;;;;;;;;;;;16.55;58.42;98648.25;7390576;19;19911;-81
2023/05/30 05:35:19;;;;;;;;;;;;;;;16.62;58.39;98646.50;7392481;19;20272;-82
2023/05/30 05:37:46;;;;;;;;;;;;;;;16.64;58.81;98655.97;7391753;19;19959;-82
2023/05/30 05:40:13;;;;;;;;;;;;;;;16.54;58.47;98662.63;7393472;19;19962;-85
2023/05/30 05:42:40;;;;;;;;;;;;;;;16.66;58.51;98664.59;7393172;19;19911;-85
2023/05/30 05:45:07;;;;;;;;;;;;;;;16.67;58.01;98660.09;7389871;19;19911;-81
2023/05/30 05:47:33;;;;;;;;;;;;;;;16.76;58.49;98660.81;7391884;19;20337;-81
2023/05/30 05:50:00;;;;;;;;;;;;;;;16.82;58.08;98652.06;7385218;19;19918;-82
2023/05/30 05:52:27;;;;;;;;;;;;;;;16.80;58.00;98651.44;7386067;19;19922;-82
2023/05/30 05:54:54;;;;;;;;;;;;;;;16.89;58.01;98661.00;7393449;19;19916;-81
2023/05/30 05:57:22;;;;;;;;;;;;;;;16.95;57.21;98665.56;7391220;19;19910;-81
2023/05/30 05:59:49;;;;;;;;;;;;;;;17.06;57.57;98672.25;7397747;19;19919;-82
2023/05/30 06:02:15;;;;;;;;;;;;;;;17.06;57.11;98675.78;7392568;19;19914;-83
2023/05/30 06:04:43;;;;;;;;;;;;;;;16.96;56.75;98674.44;7388658;19;19914;-80
2023/05/30 06:07:10;;;;;;;;;;;;;;;16.97;57.20;98676.91;7385951;19;19911;-80
2023/05/30 06:09:36;;;;;;;;;;;;;;;16.94;57.25;98671.94;7390803;19;19919;-84
2023/05/30 06:12:03;;;;;;;;;;;;;;;17.00;56.74;98675.69;7385206;19;20632;-82
2023/05/30 06:14:33;;;;;;;;;;;;;;;16.96;56.43;98677.94;7388024;19;19923;-81
2023/05/30 06:17:00;;;;;;;;;;;;;;;16.98;56.82;98675.91;7389834;19;19935;-82
2023/05/30 06:19:26;;;;;;;;;;;;;;;17.01;55.98;98683.53;7389811;19;20061;-83
2023/05/30 06:21:53;;;;;;;;;;;;;;;17.03;56.17;98686.81;7387668;19;19979;-81
2023/05/30 06:24:22;;;;;;;;;;;;;;;17.18;56.48;98688.63;7385637;19;19915;-82
2023/05/30 06:26:49;;;;;;;;;;;;;;;17.17;56.05;98690.50;7392757;19;19917;-80
2023/05/30 06:29:16;;;;;;;;;;;;;;;17.24;55.59;98690.53;7393668;19;19939;-81
2023/05/30 06:31:43;;;;;;;;;;;;;;;17.31;56.57;98689.59;7408113;19;19915;-82
2023/05/30 06:34:14;;;;;;;;;;;;;;;17.41;56.14;98694.63;7398917;19;19933;-81
2023/05/30 06:36:40;;;;;;;;;;;;;;;17.43;55.99;98699.75;7405933;19;19915;-81
2023/05/30 06:39:14;;;;;;;;;;;;;;;17.43;56.72;98694.41;7404999;19;19931;-82
2023/05/30 06:41:44;;;;;;;;;;;;;;;17.58;56.38;98691.69;7409699;19;19918;-83
2023/05/30 06:44:16;;;;;;;;;;;;;;;17.75;56.66;98699.25;7404191;19;19926;-82
2023/05/30 06:46:42;;;;;;;;;;;;;;;17.67;55.37;98701.22;7411835;19;19919;-81
2023/05/30 06:49:09;;;;;;;;;;;;;;;17.83;56.76;98697.47;7405113;19;19923;-82
2023/05/30 06:51:36;;;;;;;;;;;;;;;17.89;56.50;98708.22;7386287;19;19926;-85
2023/05/30 06:54:05;;;;;;;;;;;;;;;17.90;54.79;98703.69;7383308;19;19915;-81
2023/05/30 06:56:31;;;;;;;;;;;;;;;17.81;54.38;98700.34;7394944;19;19923;-81
2023/05/30 06:58:58;;;;;;;;;;;;;;;17.92;54.34;98697.13;7393422;19;19989;-84
2023/05/30 07:01:25;;;;;;;;;;;;;;;18.04;54.58;98704.63;7392496;19;20564;-83
2023/05/30 07:03:52;;;;;;;;;;;;;;;18.18;54.76;98704.50;7395012;19;19927;-80
2023/05/30 07:06:19;;;;;;;;;;;;;;;18.13;51.30;98704.25;7391853;19;19942;-80
2023/05/30 07:08:48;;;;;;;;;;;;;;;18.20;50.39;98704.31;7390839;19;19982;-81
2023/05/30 07:11:19;;;;;;;;;;;;;;;18.28;50.81;98700.66;7387451;19;19939;-79
2023/05/30 07:13:46;;;;;;;;;;;;;;;18.32;51.67;98700.03;7389228;19;19929;-79
2023/05/30 07:16:13;;;;;;;;;;;;;;;18.21;50.24;98708.63;7393198;19;19915;-81
2023/05/30 07:18:40;;;;;;;;;;;;;;;18.13;48.72;98700.78;7389118;19;19937;-80
2023/05/30 07:21:12;;;;;;;;;;;;;;;18.29;51.26;98702.31;7390244;19;20336;-79
2023/05/30 07:23:39;;;;;;;;;;;;;;;18.30;50.50;98706.63;7387870;19;19923;-80
2023/05/30 07:26:06;;;;;;;;;;;;;;;18.37;50.94;98702.97;7392266;19;20402;-81
2023/05/30 07:28:33;;;;;;;;;;;;;;;18.49;52.32;98703.25;7392102;19;19917;-79
2023/05/30 07:31:02;;;;;;;;;;;;;;;18.41;49.59;98712.28;7387992;19;20425;-78
2023/05/30 07:33:31;;;;;;;;;;;;;;;18.47;49.83;98709.81;7387003;19;19959;-80
2023/05/30 07:35:57;;;;;;;;;;;;;;;18.53;49.89;98703.66;7394108;19;19914;-79
2023/05/30 07:38:24;;;;;;;;;;;;;;;18.55;50.29;98710.47;7388914;19;19922;-78
2023/05/30 07:40:52;;;;;;;;;;;;;;;18.71;52.04;98706.63;7397451;19;19991;-79
2023/05/30 07:43:19;;;;;;;;;;;;;;;18.77;50.21;98705.03;7392517;19;19937;-81
2023/05/30 07:45:46;;;;;;;;;;;;;;;18.76;48.85;98706.88;7391017;19;19939;-78
2023/05/30 07:48:13;;;;;;;;;;;;;;;18.82;48.15;98699.91;7390939;19;19951;-78
2023/05/30 07:50:40;;;;;;;;;;;;;;;18.83;52.35;98706.94;7388243;19;19947;-82
2023/05/30 07:53:06;;;;;;;;;;;;;;;18.85;49.63;98691.44;7381916;19;19955;-80
2023/05/30 07:55:33;;;;;;;;;;;;;;;18.86;49.13;98696.63;7393424;19;19934;-78
2023/05/30 07:58:00;;;;;;;;;;;;;;;18.93;51.01;98698.50;7393821;19;19918;-78
2023/05/30 08:00:26;;;;;;;;;;;;;;;18.87;47.79;98700.13;7390846;19;19911;-79
2023/05/30 08:02:53;;;;;;;;;;;;;;;18.96;48.03;98698.13;7391209;19;20005;-78
2023/05/30 08:05:20;;;;;;;;;;;;;;;19.06;47.34;98698.53;7386787;19;19923;-81
2023/05/30 08:07:46;;;;;;;;;;;;;;;19.10;49.54;98701.66;7387507;19;19923;-80
2023/05/30 08:10:16;;;;;;;;;;;;;;;19.26;51.54;98694.03;7386590;19;19951;-77
2023/05/30 08:12:42;;;;;;;;;;;;;;;19.18;48.17;98690.72;7388469;19;19993;-83
2023/05/30 08:15:09;;;;;;;;;;;;;;;19.25;47.72;98691.59;7389295;19;19919;-79
2023/05/30 08:17:36;;;;;;;;;;;;;;;19.28;47.12;98697.34;7389474;19;20384;-83
2023/05/30 08:20:03;;;;;;;;;;;;;;;19.37;47.67;98692.59;7390889;19;19922;-79
2023/05/30 08:22:33;;;;;;;;;;;;;;;19.38;46.23;98688.91;7390951;19;19918;-80
2023/05/30 08:25:00;;;;;;;;;;;;;;;19.37;48.41;98683.75;7392315;19;19978;-79
2023/05/30 08:27:27;;;;;;;;;;;;;;;19.30;46.43;98687.25;7385307;19;20349;-79
2023/05/30 08:29:53;;;;;;;;;;;;;;;19.27;47.60;98689.50;7390460;19;20440;-78
2023/05/30 08:32:20;;;;;;;;;;;;;;;19.35;46.00;98691.16;7390407;19;19926;-79
2023/05/30 08:34:52;;;;;;;;;;;;;;;19.57;49.14;98692.63;7388795;19;19918;-80
2023/05/30 08:37:19;;;;;;;;;;;;;;;19.44;48.20;98695.31;7390468;19;19918;-81
2023/05/30 08:39:45;;;;;;;;;;;;;;;19.52;46.26;98687.88;7391751;19;19921;-80
2023/05/30 08:42:15;;;;;;;;;;;;;;;19.62;48.50;98684.78;7394031;19;19919;-80
2023/05/30 08:44:42;;;;;;;;;;;;;;;19.81;46.27;98685.03;7388737;19;19927;-81
2023/05/30 08:47:15;;;;;;;;;;;;;;;19.81;48.57;98682.34;7385290;19;19918;-81
2023/05/30 08:49:42;;;;;;;;;;;;;;;19.72;46.02;98682.56;7394642;19;19925;-81
2023/05/30 08:52:11;;;;;;;;;;;;;;;19.73;46.12;98683.38;7390705;19;19931;-80
2023/05/30 08:54:48;;;;;;;;;;;;;;;19.74;45.80;98683.16;7389060;19;19918;-81
2023/05/30 08:57:18;;;;;;;;;;;;;;;19.92;47.63;98687.91;7393683;19;19959;-81
2023/05/30 08:59:45;;;;;;;;;;;;;;;19.89;47.48;98682.13;7407399;19;19918;-82
2023/05/30 09:02:14;;;;;;;;;;;;;;;20.00;48.26;98684.16;7396494;19;19963;-80
2023/05/30 09:04:41;;;;;;;;;;;;;;;20.09;47.18;98690.13;7386760;19;19950;-81
2023/05/30 09:07:08;;;;;;;;;;;;;;;20.25;46.52;98681.66;7397208;19;19927;-82
2023/05/30 09:09:34;;;;;;;;;;;;;;;20.18;46.61;98675.47;7399592;19;19932;-84
2023/05/30 09:12:02;;;;;;;;;;;;;;;20.23;48.23;98686.41;7396900;19;19931;-81
2023/05/30 09:14:30;;;;;;;;;;;;;;;20.38;45.38;98680.81;7391418;19;20281;-80
2023/05/30 09:16:57;;;;;;;;;;;;;;;20.48;46.47;98678.47;7390673;19;19943;-81
2023/05/30 09:19:23;;;;;;;;;;;;;;;20.58;48.32;98672.69;7391432;19;19927;-83
2023/05/30 09:21:54;;;;;;;;;;;;;;;20.55;44.27;98682.00;7391373;19;19914;-84
2023/05/30 09:24:25;;;;;;;;;;;;;;;20.74;45.15;98676.75;7389960;19;20533;-83
2023/05/30 09:26:56;;;;;;;;;;;;;;;20.64;43.46;98674.50;7385069;19;19918;-79
2023/05/30 09:29:23;;;;;;;;;;;;;;;20.76;44.67;98678.19;7388918;19;19974;-80
2023/05/30 09:31:50;;;;;;;;;;;;;;;20.90;45.27;98673.56;7393743;19;20444;-82
2023/05/30 09:34:17;;;;;;;;;;;;;;;20.98;45.02;98678.69;7387364;19;19926;-81
2023/05/30 09:36:52;;;;;;;;;;;;;;;21.15;45.82;98681.72;7390305;19;19947;-79
2023/05/30 09:39:19;;;;;;;;;;;;;;;21.46;45.24;98683.59;7388074;19;19918;-78
2023/05/30 09:41:46;;;;;;;;;;;;;;;21.63;43.84;98683.88;7387753;19;19997;-79
2023/05/30 09:44:13;;;;;;;;;;;;;;;21.75;44.58;98680.47;7384063;19;19939;-85
2023/05/30 09:46:39;;;;;;;;;;;;;;;21.85;42.64;98678.94;7388569;19;19923;-81
2023/05/30 09:49:11;;;;;;;;;;;;;;;21.74;41.40;98676.13;7392124;19;19927;-83
2023/05/30 09:51:41;;;;;;;;;;;;;;;21.98;43.48;98677.97;7391826;19;19915;-84
2023/05/30 09:54:09;;;;;;;;;;;;;;;22.34;43.72;98679.91;7391499;19;19919;-80
2023/05/30 09:56:37;;;;;;;;;;;;;;;22.54;41.26;98676.19;7390996;19;20718;-77
2023/05/30 09:59:06;;;;;;;;;;;;;;;23.16;42.30;98671.44;7389214;19;19914;-81
2023/05/30 10:01:46;;;;;;;;;;;;;;;23.10;39.66;98679.63;7386808;19;19918;-82
2023/05/30 10:04:17;;;;;;;;;;;;;;;23.38;38.12;98669.03;7383671;19;20487;-78
2023/05/30 10:06:47;;;;;;;;;;;;;;;23.88;38.75;98667.81;7389543;19;19939;-82
2023/05/30 10:09:20;;;;;;;;;;;;;;;23.92;37.69;98657.38;7391063;19;20611;-78
2023/05/30 10:11:47;;;;;;;;;;;;;;;24.35;37.79;98656.16;7388816;19;19935;-81
2023/05/30 10:14:13;;;;;;;;;;;;;;;24.87;39.00;98659.66;7388379;19;20632;-83
2023/05/30 10:16:42;;;;;;;;;;;;;;;25.32;37.78;98649.94;7388109;19;19936;-81
2023/05/30 10:19:11;;;;;;;;;;;;;;;25.47;35.80;98650.22;7386234;19;19934;-79
2023/05/30 10:21:38;;;;;;;;;;;;;;;25.40;35.99;98653.06;7389542;19;19918;-80
2023/05/30 10:24:05;;;;;;;;;;;;;;;25.02;34.37;98645.63;7382491;19;19914;-79
2023/05/30 10:26:34;;;;;;;;;;;;;;;24.63;36.44;98640.00;7384235;19;19915;-80
2023/05/30 10:29:03;;;;;;;;;;;;;;;24.40;36.32;98635.44;7389828;19;19922;-79
2023/05/30 10:31:29;;;;;;;;;;;;;;;24.56;37.05;98630.38;7394390;19;19955;-79
2023/05/30 10:33:56;;;;;;;;;;;;;;;24.25;37.95;98635.97;7391652;19;19922;-78
2023/05/30 10:36:23;;;;;;;;;;;;;;;24.04;38.30;98633.84;7394914;19;20000;-82
2023/05/30 10:38:54;;;;;;;;;;;;;;;23.70;37.99;98627.38;7396294;19;20705;-81
2023/05/30 10:41:28;;;;;;;;;;;;;;;23.50;37.07;98625.84;7393612;19;19936;-79
2023/05/30 10:44:03;;;;;;;;;;;;;;;23.32;40.34;98632.16;7389486;19;19929;-77
2023/05/30 10:46:39;;;;;;;;;;;;;;;23.16;37.98;98628.25;7392449;19;19928;-79
2023/05/30 10:49:07;;;;;;;;;;;;;;;23.03;38.11;98628.44;7393668;19;19947;-80
2023/05/30 10:51:55;;;;;;;;;;;;;;;22.95;38.23;98628.75;7388977;19;19925;-80
2023/05/30 10:54:32;;;;;;;;;;;;;;;22.81;37.04;98619.22;7392764;19;19917;-79
2023/05/30 10:56:59;;;;;;;;;;;;;;;22.94;37.88;98619.84;7394746;19;19918;-77
2023/05/30 10:59:26;;;;;;;;;;;;;;;22.96;39.60;98625.84;7392989;19;19923;-78
2023/05/30 11:02:02;;;;;;;;;;;;;;;23.10;38.31;98621.09;7392317;19;19975;-82
2023/05/30 11:04:34;;;;;;;;;;;;;;;23.11;40.65;98611.09;7396955;19;19919;-79
2023/05/30 11:07:07;;;;;;;;;;;;;;;23.07;37.46;98618.03;7388477;19;19941;-80
2023/05/30 11:09:34;;;;;;;;;;;;;;;22.99;38.12;98617.28;7390177;19;19936;-83
2023/05/30 11:12:01;;;;;;;;;;;;;;;22.96;38.31;98614.19;7395119;19;20530;-79
2023/05/30 11:14:28;;;;;;;;;;;;;;;23.08;38.83;98611.56;7393873;19;19998;-80
2023/05/30 11:17:08;;;;;;;;;;;;;;;22.97;38.51;98608.59;7392818;19;19918;-81
2023/05/30 11:19:36;;;;;;;;;;;;;;;22.97;38.56;98605.09;7389814;19;20442;-77
2023/05/30 11:22:07;;;;;;;;;;;;;;;22.87;37.19;98599.41;7393804;19;19922;-82
2023/05/30 11:24:34;;;;;;;;;;;;;;;22.90;39.51;98601.63;7391664;19;20315;-83
2023/05/30 11:27:06;;;;;;;;;;;;;;;22.97;38.77;98591.59;7394223;19;20272;-77
2023/05/30 11:29:35;;;;;;;;;;;;;;;22.89;38.17;98590.03;7390374;19;20030;-80
2023/05/30 11:32:06;;;;;;;;;;;;;;;23.00;40.60;98604.63;7394908;19;19922;-78
2023/05/30 11:34:33;;;;;;;;;;;;;;;22.93;38.45;98598.47;7390320;19;19915;-81
2023/05/30 11:37:00;;;;;;;;;;;;;;;23.02;38.11;98588.22;7388416;19;19918;-78
2023/05/30 11:39:28;;;;;;;;;;;;;;;23.07;39.47;98597.25;7390883;19;19922;-79
2023/05/30 11:41:55;;;;;;;;;;;;;;;23.13;39.50;98596.31;7388959;19;20256;-82
2023/05/30 11:44:21;;;;;;;;;;;;;;;23.12;38.45;98586.59;7391757;19;19914;-78
2023/05/30 11:46:58;;;;;;;;;;;;;;;23.12;38.35;98593.88;7391758;19;19922;-82
2023/05/30 11:49:25;;;;;;;;;;;;;;;23.12;39.18;98588.47;7391029;19;19922;-79
2023/05/30 11:51:55;;;;;;;;;;;;;;;22.96;36.91;98584.50;7390724;19;19922;-77
2023/05/30 11:54:22;;;;;;;;;;;;;;;23.13;35.61;98584.72;7387190;19;19923;-84
2023/05/30 11:56:50;;;;;;;;;;;;;;;23.07;35.61;98581.06;7388334;19;19918;-81
2023/05/30 11:59:19;;;;;;;;;;;;;;;23.20;36.51;98583.56;7387190;19;19911;-78
2023/05/30 12:01:50;;;;;;;;;;;;;;;23.21;35.93;98579.78;7389654;19;19958;-76
2023/05/30 12:04:19;;;;;;;;;;;;;;;23.29;35.75;98583.22;7391044;19;19919;-77
2023/05/30 12:06:46;;;;;;;;;;;;;;;23.35;35.86;98572.28;7392511;19;19919;-83
2023/05/30 12:09:13;;;;;;;;;;;;;;;23.39;36.62;98578.06;7390062;19;19922;-80
2023/05/30 12:11:50;;;;;;;;;;;;;;;23.50;38.37;98574.53;7391639;19;19918;-78
2023/05/30 12:14:17;;;;;;;;;;;;;;;23.78;36.35;98575.75;7385366;19;19929;-81
2023/05/30 12:16:43;;;;;;;;;;;;;;;24.10;36.55;98576.16;7396193;19;19926;-77
2023/05/30 12:19:10;;;;;;;;;;;;;;;24.28;37.00;98572.47;7390446;19;19949;-77
2023/05/30 12:21:37;;;;;;;;;;;;;;;24.34;34.29;98573.41;7389921;19;21009;-79
2023/05/30 12:24:08;;;;;;;;;;;;;;;24.27;36.34;98574.34;7388738;19;19922;-76
2023/05/30 12:26:35;;;;;;;;;;;;;;;24.20;36.36;98576.38;7386952;19;19946;-79
2023/05/30 12:29:08;;;;;;;;;;;;;;;24.16;35.17;98571.69;7387828;19;19926;-79
2023/05/30 12:31:35;;;;;;;;;;;;;;;23.94;34.85;98571.50;7381033;19;19922;-79
2023/05/30 12:34:01;;;;;;;;;;;;;;;23.92;34.55;98566.31;7385379;19;19931;-80
2023/05/30 12:36:28;;;;;;;;;;;;;;;24.08;34.86;98568.28;7390434;19;20258;-80
2023/05/30 12:38:57;;;;;;;;;;;;;;;24.11;35.43;98564.28;7389348;19;19923;-78
2023/05/30 12:41:27;;;;;;;;;;;;;;;24.00;37.02;98563.25;7387918;19;20329;-78
2023/05/30 12:43:56;;;;;;;;;;;;;;;23.98;36.94;98572.66;7386835;19;20006;-79
2023/05/30 12:46:25;;;;;;;;;;;;;;;23.93;35.35;98565.25;7384326;19;19921;-82
2023/05/30 12:48:52;;;;;;;;;;;;;;;23.92;36.21;98566.31;7386747;19;19914;-78
2023/05/30 12:51:24;;;;;;;;;;;;;;;23.82;35.23;98566.09;7388485;19;19921;-81
2023/05/30 12:53:53;;;;;;;;;;;;;;;24.07;36.02;98555.03;7384940;19;20468;-81
2023/05/30 12:56:20;;;;;;;;;;;;;;;24.08;35.62;98560.19;7389347;19;19939;-80